A- A+ FrançaisEnglishEspañol中国

Services sur Internet Soldes sur Internet Des idées de cadeaux Météo Météo aéro

La météo à : Autours de vous Tarbes-Lourdes-PyrénéesPau-PyrénéesPersan-Beaumont Toulouse-Blagnac

manche à air

La météo aéronautique pour les pilotes, la préparation du vol avec les METAR (METeorological Aerodrome Report, message d'observation des conditions météorologiques pour l'aviation) et Les TAF (Terminal Aerodrome Forecast : message de prévision à court terme des conditions météorologiques pour l'aviation). Et les autres ressources comme les VAC (Visual Approch Chart) et les NOTAM (Notice To Airman) pour préprer les vols.

Aéroport Deline (Canada) / OACI CYWJ/ IATA YWJ

L'altitude de l'aéroport Deline est de 214 m = 702 ft. Il est situé à proximité de Déline (Canada). La météo générale à 5 jours est disponible pour Fort Franklin situé à 3.4 km.

METAR de l'aéroport Deline - CYWJ

CYWJ 161309Z 09008KT 1SM BR BKN010 OVC017 M01/M02 A2963 RMK SC5SC3 CIG RAG SLP051

Décodage du METAR de l'aéroport Deline (CA)

METAR émis par CYWJ le mercredi 16 octobre 2019 à 13:09 heure TU. Attention ce METAR est obsolète car il a été émis il y a 20 heure et 58 minutes.

La visibilité est de 1.6 km = 1 sm.

La température est de -1°C = 30 °F et le point rosée est de -2°C = 28 °F . Ce qui correspond à 93% d'humidité relative.

Le QNH est de 1003 hPa = 29.62 inHg

Vent de 8 kt = 15 km/h, orienté à 90°.

Nuages : Couverture nuageuse fragmentée à 1000 ft = 300 mètres. Couverture nuageuse soudée à 1700 ft = 520 mètres.

BR

RMK SC5SC3 CIG pluie G SLP051

TAF de l'aéroport Deline - CYWJ

CYWJ 311738Z 3118/3123 10010KT P6SM BKN040 BKN100 FM312100 10010KT P6SM SCT040 SCT100 RMK NXT FCST WILL BE ISSUED AT 021415Z

CYWJ 311738Z 3118/3123 10010KT P6SM couverture nuageuse fragmentée à 040 couverture nuageuse fragmentée à 100 FM312100 10010KT P6SM nuages épars à 040 nuages épars à 100 remarques NXT trombe ST WILL BE ISSUED AT 021415Z

Aéroport à proximité de Deline

Météo générale à 5 jours à Fort Franklin (3.4 km)Aéroport Fort Norman (106 km)Aéroport Norman Wells (157 km)Aéroport Wrigley (223 km)Aéroport Fort Good Hope (264 km)Aéroport Fort Simpson (399 km)Aéroport Paulatuk (462 km)

Vue aérienne de l'aéroport Deline

NOTAM de l'aéroport Deline

Les NOTAM sont fournis sans aucune garantie de leur actualité. Le pilote est le seul responsable de la vérification de sa validité avant de l'utiliser opérationnellement pour préparer un vol ou l'utiliser lors de sa navigation.

Pas de NOTAM

Sources des données